sensor_id;sensor_type;location;lat;lon;timestamp;P1;durP1;ratioP1;P2;durP2;ratioP2
64842;SDS011;51310;52.198;5.422;2022-08-21T00:00:32;8.05;;;5.00;;
64842;SDS011;51310;52.198;5.422;2022-08-21T00:03:01;8.90;;;4.75;;
64842;SDS011;51310;52.198;5.422;2022-08-21T00:05:33;10.70;;;4.73;;
64842;SDS011;51310;52.198;5.422;2022-08-21T00:08:06;10.73;;;4.68;;
64842;SDS011;51310;52.198;5.422;2022-08-21T00:10:33;12.07;;;4.88;;
64842;SDS011;51310;52.198;5.422;2022-08-21T00:13:00;7.95;;;4.45;;
64842;SDS011;51310;52.198;5.422;2022-08-21T00:15:30;7.88;;;4.53;;
64842;SDS011;51310;52.198;5.422;2022-08-21T00:18:00;10.95;;;4.20;;
64842;SDS011;51310;52.198;5.422;2022-08-21T00:20:27;8.10;;;4.32;;
64842;SDS011;51310;52.198;5.422;2022-08-21T00:22:53;18.20;;;4.68;;
64842;SDS011;51310;52.198;5.422;2022-08-21T00:25:20;9.40;;;4.35;;
64842;SDS011;51310;52.198;5.422;2022-08-21T00:27:46;10.25;;;4.97;;
64842;SDS011;51310;52.198;5.422;2022-08-21T00:30:13;10.25;;;5.18;;
64842;SDS011;51310;52.198;5.422;2022-08-21T00:32:43;6.82;;;4.60;;
64842;SDS011;51310;52.198;5.422;2022-08-21T00:35:12;6.83;;;4.40;;
64842;SDS011;51310;52.198;5.422;2022-08-21T00:37:49;8.25;;;4.68;;
64842;SDS011;51310;52.198;5.422;2022-08-21T00:40:18;9.73;;;4.15;;
64842;SDS011;51310;52.198;5.422;2022-08-21T00:43:03;8.35;;;4.20;;
64842;SDS011;51310;52.198;5.422;2022-08-21T00:45:33;6.45;;;3.97;;
64842;SDS011;51310;52.198;5.422;2022-08-21T00:48:00;8.95;;;4.28;;
64842;SDS011;51310;52.198;5.422;2022-08-21T00:50:28;8.05;;;4.32;;
64842;SDS011;51310;52.198;5.422;2022-08-21T00:52:59;8.33;;;4.40;;
64842;SDS011;51310;52.198;5.422;2022-08-21T00:55:30;10.00;;;4.28;;
64842;SDS011;51310;52.198;5.422;2022-08-21T00:57:59;9.50;;;4.18;;
64842;SDS011;51310;52.198;5.422;2022-08-21T01:00:28;8.50;;;4.38;;
64842;SDS011;51310;52.198;5.422;2022-08-21T01:02:59;9.18;;;4.55;;
64842;SDS011;51310;52.198;5.422;2022-08-21T01:05:34;9.43;;;4.93;;
64842;SDS011;51310;52.198;5.422;2022-08-21T01:08:01;6.85;;;4.13;;
64842;SDS011;51310;52.198;5.422;2022-08-21T01:10:29;7.93;;;4.75;;
64842;SDS011;51310;52.198;5.422;2022-08-21T01:12:55;6.47;;;3.90;;
64842;SDS011;51310;52.198;5.422;2022-08-21T01:15:24;12.93;;;4.33;;
64842;SDS011;51310;52.198;5.422;2022-08-21T01:17:57;8.50;;;4.30;;
64842;SDS011;51310;52.198;5.422;2022-08-21T01:20:24;9.52;;;4.03;;
64842;SDS011;51310;52.198;5.422;2022-08-21T01:22:50;6.50;;;3.90;;
64842;SDS011;51310;52.198;5.422;2022-08-21T01:25:16;8.18;;;4.53;;
64842;SDS011;51310;52.198;5.422;2022-08-21T01:27:47;9.48;;;4.32;;
64842;SDS011;51310;52.198;5.422;2022-08-21T01:30:15;7.50;;;4.38;;
64842;SDS011;51310;52.198;5.422;2022-08-21T01:32:48;9.00;;;4.00;;
64842;SDS011;51310;52.198;5.422;2022-08-21T01:35:16;9.55;;;4.82;;
64842;SDS011;51310;52.198;5.422;2022-08-21T01:37:44;8.07;;;4.20;;
64842;SDS011;51310;52.198;5.422;2022-08-21T01:40:12;7.53;;;4.18;;
64842;SDS011;51310;52.198;5.422;2022-08-21T01:42:41;7.88;;;4.38;;
64842;SDS011;51310;52.198;5.422;2022-08-21T01:45:09;11.63;;;4.70;;
64842;SDS011;51310;52.198;5.422;2022-08-21T01:47:37;6.32;;;4.25;;
64842;SDS011;51310;52.198;5.422;2022-08-21T01:50:04;8.10;;;4.40;;
64842;SDS011;51310;52.198;5.422;2022-08-21T01:52:36;8.05;;;4.47;;
64842;SDS011;51310;52.198;5.422;2022-08-21T01:55:03;8.02;;;4.45;;
64842;SDS011;51310;52.198;5.422;2022-08-21T01:57:35;11.18;;;4.72;;
64842;SDS011;51310;52.198;5.422;2022-08-21T02:00:03;9.45;;;4.78;;
64842;SDS011;51310;52.198;5.422;2022-08-21T02:02:35;10.02;;;4.72;;
64842;SDS011;51310;52.198;5.422;2022-08-21T02:05:03;11.00;;;5.38;;
64842;SDS011;51310;52.198;5.422;2022-08-21T02:07:40;7.80;;;4.37;;
64842;SDS011;51310;52.198;5.422;2022-08-21T02:10:18;12.57;;;4.82;;
64842;SDS011;51310;52.198;5.422;2022-08-21T02:12:52;9.15;;;4.72;;
64842;SDS011;51310;52.198;5.422;2022-08-21T02:15:20;9.10;;;4.80;;
64842;SDS011;51310;52.198;5.422;2022-08-21T02:17:51;7.50;;;4.90;;
64842;SDS011;51310;52.198;5.422;2022-08-21T02:20:24;9.23;;;5.05;;
64842;SDS011;51310;52.198;5.422;2022-08-21T02:23:01;9.70;;;4.93;;
64842;SDS011;51310;52.198;5.422;2022-08-21T02:25:29;12.20;;;5.35;;
64842;SDS011;51310;52.198;5.422;2022-08-21T02:27:55;10.65;;;5.25;;
64842;SDS011;51310;52.198;5.422;2022-08-21T02:30:24;9.75;;;4.78;;
64842;SDS011;51310;52.198;5.422;2022-08-21T02:33:07;13.77;;;5.70;;
64842;SDS011;51310;52.198;5.422;2022-08-21T02:35:36;9.27;;;5.22;;
64842;SDS011;51310;52.198;5.422;2022-08-21T02:38:05;10.57;;;5.07;;
64842;SDS011;51310;52.198;5.422;2022-08-21T02:40:37;11.65;;;5.68;;
64842;SDS011;51310;52.198;5.422;2022-08-21T02:43:07;10.45;;;5.22;;
64842;SDS011;51310;52.198;5.422;2022-08-21T02:45:33;9.48;;;4.78;;
64842;SDS011;51310;52.198;5.422;2022-08-21T02:48:03;10.02;;;5.22;;
64842;SDS011;51310;52.198;5.422;2022-08-21T02:50:35;9.55;;;5.45;;
64842;SDS011;51310;52.198;5.422;2022-08-21T02:53:14;10.30;;;5.53;;
64842;SDS011;51310;52.198;5.422;2022-08-21T02:55:42;10.45;;;5.22;;
64842;SDS011;51310;52.198;5.422;2022-08-21T02:58:12;9.45;;;5.20;;
64842;SDS011;51310;52.198;5.422;2022-08-21T03:00:48;7.45;;;4.80;;
64842;SDS011;51310;52.198;5.422;2022-08-21T03:03:16;9.27;;;5.10;;
64842;SDS011;51310;52.198;5.422;2022-08-21T03:05:42;12.45;;;5.85;;
64842;SDS011;51310;52.198;5.422;2022-08-21T03:08:10;10.82;;;5.55;;
64842;SDS011;51310;52.198;5.422;2022-08-21T03:10:40;13.65;;;5.85;;
64842;SDS011;51310;52.198;5.422;2022-08-21T03:13:14;8.00;;;5.05;;
64842;SDS011;51310;52.198;5.422;2022-08-21T03:15:42;8.13;;;4.90;;
64842;SDS011;51310;52.198;5.422;2022-08-21T03:18:10;10.40;;;5.60;;
64842;SDS011;51310;52.198;5.422;2022-08-21T03:20:37;9.63;;;5.13;;
64842;SDS011;51310;52.198;5.422;2022-08-21T03:23:06;8.35;;;5.28;;
64842;SDS011;51310;52.198;5.422;2022-08-21T03:25:34;8.80;;;5.72;;
64842;SDS011;51310;52.198;5.422;2022-08-21T03:28:01;13.05;;;6.10;;
64842;SDS011;51310;52.198;5.422;2022-08-21T03:30:34;11.32;;;4.88;;
64842;SDS011;51310;52.198;5.422;2022-08-21T03:33:01;6.97;;;5.30;;
64842;SDS011;51310;52.198;5.422;2022-08-21T03:35:28;9.85;;;5.50;;
64842;SDS011;51310;52.198;5.422;2022-08-21T03:37:54;11.38;;;5.13;;
64842;SDS011;51310;52.198;5.422;2022-08-21T03:40:23;10.20;;;4.82;;
64842;SDS011;51310;52.198;5.422;2022-08-21T03:42:50;10.50;;;5.57;;
64842;SDS011;51310;52.198;5.422;2022-08-21T03:45:17;9.52;;;5.43;;
64842;SDS011;51310;52.198;5.422;2022-08-21T03:47:54;10.32;;;5.10;;
64842;SDS011;51310;52.198;5.422;2022-08-21T03:50:30;10.30;;;5.28;;
64842;SDS011;51310;52.198;5.422;2022-08-21T03:52:59;8.55;;;5.43;;
64842;SDS011;51310;52.198;5.422;2022-08-21T03:55:26;13.05;;;6.05;;
64842;SDS011;51310;52.198;5.422;2022-08-21T03:57:52;9.23;;;5.40;;
64842;SDS011;51310;52.198;5.422;2022-08-21T04:00:19;10.43;;;5.53;;
64842;SDS011;51310;52.198;5.422;2022-08-21T04:02:45;8.82;;;5.50;;
64842;SDS011;51310;52.198;5.422;2022-08-21T04:05:13;11.17;;;6.90;;
64842;SDS011;51310;52.198;5.422;2022-08-21T04:07:53;14.73;;;6.03;;
64842;SDS011;51310;52.198;5.422;2022-08-21T04:10:26;10.07;;;4.78;;
64842;SDS011;51310;52.198;5.422;2022-08-21T04:12:57;8.60;;;5.53;;
64842;SDS011;51310;52.198;5.422;2022-08-21T04:15:23;10.25;;;6.43;;
64842;SDS011;51310;52.198;5.422;2022-08-21T04:17:51;12.38;;;5.70;;
64842;SDS011;51310;52.198;5.422;2022-08-21T04:20:18;10.75;;;5.43;;
64842;SDS011;51310;52.198;5.422;2022-08-21T04:22:46;8.50;;;5.72;;
64842;SDS011;51310;52.198;5.422;2022-08-21T04:25:14;10.38;;;5.95;;
64842;SDS011;51310;52.198;5.422;2022-08-21T04:27:43;12.27;;;5.80;;
64842;SDS011;51310;52.198;5.422;2022-08-21T04:30:10;12.60;;;6.18;;
64842;SDS011;51310;52.198;5.422;2022-08-21T04:32:38;10.95;;;5.85;;
64842;SDS011;51310;52.198;5.422;2022-08-21T04:35:11;13.98;;;6.00;;
64842;SDS011;51310;52.198;5.422;2022-08-21T04:37:41;14.23;;;6.40;;
64842;SDS011;51310;52.198;5.422;2022-08-21T04:40:07;15.48;;;6.63;;
64842;SDS011;51310;52.198;5.422;2022-08-21T04:42:47;11.60;;;6.47;;
64842;SDS011;51310;52.198;5.422;2022-08-21T04:45:27;13.32;;;7.55;;
64842;SDS011;51310;52.198;5.422;2022-08-21T04:47:58;15.30;;;6.95;;
64842;SDS011;51310;52.198;5.422;2022-08-21T04:56:01;15.30;;;7.80;;
64842;SDS011;51310;52.198;5.422;2022-08-21T04:58:40;13.23;;;8.18;;
64842;SDS011;51310;52.198;5.422;2022-08-21T05:01:07;14.20;;;7.78;;
64842;SDS011;51310;52.198;5.422;2022-08-21T05:03:38;13.52;;;8.30;;
64842;SDS011;51310;52.198;5.422;2022-08-21T05:06:06;12.30;;;7.72;;
64842;SDS011;51310;52.198;5.422;2022-08-21T05:08:37;15.02;;;7.57;;
64842;SDS011;51310;52.198;5.422;2022-08-21T05:11:06;14.60;;;8.07;;
64842;SDS011;51310;52.198;5.422;2022-08-21T05:13:32;18.02;;;8.27;;
64842;SDS011;51310;52.198;5.422;2022-08-21T05:15:58;14.65;;;8.80;;
64842;SDS011;51310;52.198;5.422;2022-08-21T05:18:24;15.23;;;8.07;;
64842;SDS011;51310;52.198;5.422;2022-08-21T05:20:50;15.82;;;8.45;;
64842;SDS011;51310;52.198;5.422;2022-08-21T05:23:16;12.73;;;7.85;;
64842;SDS011;51310;52.198;5.422;2022-08-21T05:25:42;11.63;;;6.70;;
64842;SDS011;51310;52.198;5.422;2022-08-21T05:28:08;13.27;;;6.88;;
64842;SDS011;51310;52.198;5.422;2022-08-21T05:30:36;16.70;;;7.75;;
64842;SDS011;51310;52.198;5.422;2022-08-21T05:33:03;11.68;;;6.53;;
64842;SDS011;51310;52.198;5.422;2022-08-21T05:35:31;12.90;;;6.90;;
64842;SDS011;51310;52.198;5.422;2022-08-21T05:37:59;10.43;;;5.73;;
64842;SDS011;51310;52.198;5.422;2022-08-21T05:40:26;12.55;;;6.53;;
64842;SDS011;51310;52.198;5.422;2022-08-21T05:42:53;14.23;;;6.13;;
64842;SDS011;51310;52.198;5.422;2022-08-21T05:45:25;15.35;;;6.47;;
64842;SDS011;51310;52.198;5.422;2022-08-21T05:47:57;11.35;;;5.30;;
64842;SDS011;51310;52.198;5.422;2022-08-21T05:50:31;11.70;;;5.35;;
64842;SDS011;51310;52.198;5.422;2022-08-21T05:52:57;10.37;;;4.57;;
64842;SDS011;51310;52.198;5.422;2022-08-21T05:55:23;12.20;;;4.93;;
64842;SDS011;51310;52.198;5.422;2022-08-21T05:57:49;11.67;;;4.77;;
64842;SDS011;51310;52.198;5.422;2022-08-21T06:00:15;12.73;;;4.80;;
64842;SDS011;51310;52.198;5.422;2022-08-21T06:02:41;9.05;;;4.75;;
64842;SDS011;51310;52.198;5.422;2022-08-21T06:05:07;10.90;;;4.97;;
64842;SDS011;51310;52.198;5.422;2022-08-21T06:07:33;12.98;;;4.95;;
64842;SDS011;51310;52.198;5.422;2022-08-21T06:09:59;9.23;;;4.65;;
64842;SDS011;51310;52.198;5.422;2022-08-21T06:12:25;13.40;;;4.50;;
64842;SDS011;51310;52.198;5.422;2022-08-21T06:14:51;9.32;;;4.53;;
64842;SDS011;51310;52.198;5.422;2022-08-21T06:17:17;8.47;;;4.23;;
64842;SDS011;51310;52.198;5.422;2022-08-21T06:19:44;9.73;;;4.35;;
64842;SDS011;51310;52.198;5.422;2022-08-21T06:22:10;7.55;;;4.30;;
64842;SDS011;51310;52.198;5.422;2022-08-21T06:24:36;11.32;;;4.95;;
64842;SDS011;51310;52.198;5.422;2022-08-21T06:27:06;16.30;;;5.20;;
64842;SDS011;51310;52.198;5.422;2022-08-21T06:29:33;12.32;;;4.78;;
64842;SDS011;51310;52.198;5.422;2022-08-21T06:31:59;15.75;;;5.05;;
64842;SDS011;51310;52.198;5.422;2022-08-21T06:34:26;9.40;;;4.75;;
64842;SDS011;51310;52.198;5.422;2022-08-21T06:36:52;14.02;;;5.47;;
64842;SDS011;51310;52.198;5.422;2022-08-21T06:39:18;13.00;;;5.57;;
64842;SDS011;51310;52.198;5.422;2022-08-21T06:41:44;14.57;;;5.00;;
64842;SDS011;51310;52.198;5.422;2022-08-21T06:44:10;13.82;;;5.35;;
64842;SDS011;51310;52.198;5.422;2022-08-21T06:46:37;14.65;;;4.85;;
64842;SDS011;51310;52.198;5.422;2022-08-21T06:49:03;12.60;;;4.57;;
64842;SDS011;51310;52.198;5.422;2022-08-21T06:51:29;22.20;;;4.75;;
64842;SDS011;51310;52.198;5.422;2022-08-21T06:53:55;12.57;;;4.53;;
64842;SDS011;51310;52.198;5.422;2022-08-21T06:56:24;12.00;;;4.80;;
64842;SDS011;51310;52.198;5.422;2022-08-21T06:58:49;13.80;;;4.57;;
64842;SDS011;51310;52.198;5.422;2022-08-21T07:01:15;17.30;;;4.83;;
64842;SDS011;51310;52.198;5.422;2022-08-21T07:03:42;13.53;;;4.87;;
64842;SDS011;51310;52.198;5.422;2022-08-21T07:06:09;16.23;;;4.67;;
64842;SDS011;51310;52.198;5.422;2022-08-21T07:08:36;13.02;;;4.55;;
64842;SDS011;51310;52.198;5.422;2022-08-21T07:11:04;12.27;;;4.80;;
64842;SDS011;51310;52.198;5.422;2022-08-21T07:13:39;13.17;;;4.73;;
64842;SDS011;51310;52.198;5.422;2022-08-21T07:16:05;14.02;;;4.88;;
64842;SDS011;51310;52.198;5.422;2022-08-21T07:18:31;11.98;;;4.68;;
64842;SDS011;51310;52.198;5.422;2022-08-21T07:20:57;11.23;;;4.85;;
64842;SDS011;51310;52.198;5.422;2022-08-21T07:23:28;12.98;;;4.32;;
64842;SDS011;51310;52.198;5.422;2022-08-21T07:25:59;15.48;;;4.45;;
64842;SDS011;51310;52.198;5.422;2022-08-21T07:28:26;13.43;;;4.38;;
64842;SDS011;51310;52.198;5.422;2022-08-21T07:30:54;13.88;;;5.03;;
64842;SDS011;51310;52.198;5.422;2022-08-21T07:33:25;13.48;;;4.57;;
64842;SDS011;51310;52.198;5.422;2022-08-21T07:35:54;12.98;;;4.60;;
64842;SDS011;51310;52.198;5.422;2022-08-21T07:38:20;13.35;;;5.20;;
64842;SDS011;51310;52.198;5.422;2022-08-21T07:40:47;19.75;;;5.25;;
64842;SDS011;51310;52.198;5.422;2022-08-21T07:43:17;12.50;;;4.38;;
64842;SDS011;51310;52.198;5.422;2022-08-21T07:45:44;18.08;;;5.07;;
64842;SDS011;51310;52.198;5.422;2022-08-21T07:48:10;13.38;;;4.28;;
64842;SDS011;51310;52.198;5.422;2022-08-21T07:50:36;13.57;;;4.60;;
64842;SDS011;51310;52.198;5.422;2022-08-21T07:53:04;12.27;;;3.73;;
64842;SDS011;51310;52.198;5.422;2022-08-21T07:55:29;10.67;;;4.20;;
64842;SDS011;51310;52.198;5.422;2022-08-21T07:57:55;16.57;;;3.53;;
64842;SDS011;51310;52.198;5.422;2022-08-21T08:00:23;12.77;;;3.33;;
64842;SDS011;51310;52.198;5.422;2022-08-21T08:02:52;12.75;;;4.28;;
64842;SDS011;51310;52.198;5.422;2022-08-21T08:05:20;17.65;;;4.15;;
64842;SDS011;51310;52.198;5.422;2022-08-21T08:07:52;9.20;;;3.33;;
64842;SDS011;51310;52.198;5.422;2022-08-21T08:10:19;12.15;;;3.50;;
64842;SDS011;51310;52.198;5.422;2022-08-21T08:12:47;12.73;;;3.57;;
64842;SDS011;51310;52.198;5.422;2022-08-21T08:15:17;15.68;;;4.43;;
64842;SDS011;51310;52.198;5.422;2022-08-21T08:17:47;10.60;;;3.70;;
64842;SDS011;51310;52.198;5.422;2022-08-21T08:20:14;15.00;;;3.92;;
64842;SDS011;51310;52.198;5.422;2022-08-21T08:22:43;11.00;;;2.95;;
64842;SDS011;51310;52.198;5.422;2022-08-21T08:25:12;13.23;;;3.38;;
64842;SDS011;51310;52.198;5.422;2022-08-21T08:27:40;9.90;;;3.72;;
64842;SDS011;51310;52.198;5.422;2022-08-21T08:30:07;10.80;;;3.40;;
64842;SDS011;51310;52.198;5.422;2022-08-21T08:32:37;13.50;;;3.00;;
64842;SDS011;51310;52.198;5.422;2022-08-21T08:35:05;8.47;;;2.93;;
64842;SDS011;51310;52.198;5.422;2022-08-21T08:37:33;10.85;;;3.20;;
64842;SDS011;51310;52.198;5.422;2022-08-21T08:40:02;10.07;;;3.00;;
64842;SDS011;51310;52.198;5.422;2022-08-21T08:42:31;11.23;;;3.03;;
64842;SDS011;51310;52.198;5.422;2022-08-21T08:45:11;13.90;;;3.67;;
64842;SDS011;51310;52.198;5.422;2022-08-21T08:47:46;12.93;;;3.63;;
64842;SDS011;51310;52.198;5.422;2022-08-21T08:51:06;10.00;;;3.10;;
64842;SDS011;51310;52.198;5.422;2022-08-21T08:55:53;11.13;;;2.97;;
64842;SDS011;51310;52.198;5.422;2022-08-21T08:58:28;13.17;;;3.17;;
64842;SDS011;51310;52.198;5.422;2022-08-21T09:00:59;10.65;;;2.70;;
64842;SDS011;51310;52.198;5.422;2022-08-21T09:03:31;12.13;;;3.10;;
64842;SDS011;51310;52.198;5.422;2022-08-21T09:09:02;11.85;;;3.47;;
64842;SDS011;51310;52.198;5.422;2022-08-21T09:12:04;10.85;;;2.92;;
64842;SDS011;51310;52.198;5.422;2022-08-21T09:25:42;13.65;;;3.85;;
64842;SDS011;51310;52.198;5.422;2022-08-21T09:28:32;9.10;;;3.05;;
64842;SDS011;51310;52.198;5.422;2022-08-21T09:31:00;9.15;;;3.13;;
64842;SDS011;51310;52.198;5.422;2022-08-21T09:33:34;7.50;;;2.30;;
64842;SDS011;51310;52.198;5.422;2022-08-21T09:36:00;13.48;;;3.38;;
64842;SDS011;51310;52.198;5.422;2022-08-21T09:38:30;8.13;;;2.45;;
64842;SDS011;51310;52.198;5.422;2022-08-21T09:41:03;12.55;;;2.88;;
64842;SDS011;51310;52.198;5.422;2022-08-21T09:43:35;9.40;;;2.40;;
64842;SDS011;51310;52.198;5.422;2022-08-21T09:46:20;11.52;;;2.53;;
64842;SDS011;51310;52.198;5.422;2022-08-21T09:48:51;8.10;;;2.42;;
64842;SDS011;51310;52.198;5.422;2022-08-21T09:51:27;8.77;;;2.47;;
64842;SDS011;51310;52.198;5.422;2022-08-21T09:56:51;8.00;;;2.28;;
64842;SDS011;51310;52.198;5.422;2022-08-21T10:03:10;11.10;;;2.50;;
64842;SDS011;51310;52.198;5.422;2022-08-21T10:05:58;6.47;;;2.20;;
64842;SDS011;51310;52.198;5.422;2022-08-21T10:08:31;12.25;;;2.50;;
64842;SDS011;51310;52.198;5.422;2022-08-21T10:11:08;8.23;;;2.63;;
64842;SDS011;51310;52.198;5.422;2022-08-21T10:22:38;12.13;;;2.85;;
64842;SDS011;51310;52.198;5.422;2022-08-21T10:28:37;9.63;;;2.00;;
64842;SDS011;51310;52.198;5.422;2022-08-21T10:34:24;9.93;;;2.70;;
64842;SDS011;51310;52.198;5.422;2022-08-21T10:41:01;7.38;;;2.08;;
64842;SDS011;51310;52.198;5.422;2022-08-21T10:44:17;5.65;;;1.77;;
64842;SDS011;51310;52.198;5.422;2022-08-21T10:50:21;9.20;;;2.22;;
64842;SDS011;51310;52.198;5.422;2022-08-21T10:55:59;7.25;;;1.60;;
64842;SDS011;51310;52.198;5.422;2022-08-21T11:02:00;9.43;;;2.90;;
64842;SDS011;51310;52.198;5.422;2022-08-21T11:05:05;9.65;;;2.97;;
64842;SDS011;51310;52.198;5.422;2022-08-21T11:10:38;10.00;;;2.60;;
64842;SDS011;51310;52.198;5.422;2022-08-21T11:13:15;7.68;;;2.00;;
64842;SDS011;51310;52.198;5.422;2022-08-21T11:19:19;8.80;;;2.30;;
64842;SDS011;51310;52.198;5.422;2022-08-21T11:22:28;7.55;;;2.17;;
64842;SDS011;51310;52.198;5.422;2022-08-21T11:25:17;9.70;;;2.13;;
64842;SDS011;51310;52.198;5.422;2022-08-21T11:49:44;7.57;;;2.22;;
64842;SDS011;51310;52.198;5.422;2022-08-21T11:52:48;8.27;;;2.30;;
64842;SDS011;51310;52.198;5.422;2022-08-21T11:58:06;8.60;;;2.85;;
64842;SDS011;51310;52.198;5.422;2022-08-21T12:00:50;9.10;;;2.40;;
64842;SDS011;51310;52.198;5.422;2022-08-21T12:03:28;8.63;;;2.50;;
64842;SDS011;51310;52.198;5.422;2022-08-21T12:06:03;9.27;;;2.60;;
64842;SDS011;51310;52.198;5.422;2022-08-21T12:08:41;10.20;;;2.88;;
64842;SDS011;51310;52.198;5.422;2022-08-21T12:14:11;6.95;;;2.88;;
64842;SDS011;51310;52.198;5.422;2022-08-21T12:16:44;5.18;;;2.10;;
64842;SDS011;51310;52.198;5.422;2022-08-21T12:21:48;6.93;;;2.45;;
64842;SDS011;51310;52.198;5.422;2022-08-21T12:26:52;7.82;;;2.30;;
64842;SDS011;51310;52.198;5.422;2022-08-21T12:29:33;9.25;;;2.20;;
64842;SDS011;51310;52.198;5.422;2022-08-21T12:32:04;8.05;;;2.30;;
64842;SDS011;51310;52.198;5.422;2022-08-21T12:34:55;5.32;;;2.45;;
64842;SDS011;51310;52.198;5.422;2022-08-21T12:37:48;8.18;;;2.92;;
64842;SDS011;51310;52.198;5.422;2022-08-21T12:40:37;9.75;;;2.97;;
64842;SDS011;51310;52.198;5.422;2022-08-21T12:43:24;8.25;;;2.08;;
64842;SDS011;51310;52.198;5.422;2022-08-21T12:46:20;7.43;;;1.83;;
64842;SDS011;51310;52.198;5.422;2022-08-21T12:49:45;9.10;;;2.77;;
64842;SDS011;51310;52.198;5.422;2022-08-21T12:52:13;6.78;;;2.22;;
64842;SDS011;51310;52.198;5.422;2022-08-21T12:54:49;8.13;;;2.05;;
64842;SDS011;51310;52.198;5.422;2022-08-21T12:57:23;6.87;;;2.40;;
64842;SDS011;51310;52.198;5.422;2022-08-21T12:59:54;6.25;;;2.38;;
64842;SDS011;51310;52.198;5.422;2022-08-21T13:02:33;9.15;;;2.47;;
64842;SDS011;51310;52.198;5.422;2022-08-21T13:05:05;10.17;;;2.37;;
64842;SDS011;51310;52.198;5.422;2022-08-21T13:07:38;9.27;;;2.33;;
64842;SDS011;51310;52.198;5.422;2022-08-21T13:10:16;5.63;;;2.10;;
64842;SDS011;51310;52.198;5.422;2022-08-21T13:12:59;7.25;;;2.13;;
64842;SDS011;51310;52.198;5.422;2022-08-21T13:15:32;7.22;;;1.80;;
64842;SDS011;51310;52.198;5.422;2022-08-21T13:18:02;7.15;;;2.35;;
64842;SDS011;51310;52.198;5.422;2022-08-21T13:20:32;7.63;;;1.90;;
64842;SDS011;51310;52.198;5.422;2022-08-21T13:23:06;9.43;;;2.33;;
64842;SDS011;51310;52.198;5.422;2022-08-21T13:25:46;6.53;;;2.22;;
64842;SDS011;51310;52.198;5.422;2022-08-21T13:28:12;7.90;;;2.10;;
64842;SDS011;51310;52.198;5.422;2022-08-21T13:30:42;7.43;;;2.20;;
64842;SDS011;51310;52.198;5.422;2022-08-21T13:33:21;9.98;;;2.40;;
64842;SDS011;51310;52.198;5.422;2022-08-21T13:35:57;5.80;;;1.73;;
64842;SDS011;51310;52.198;5.422;2022-08-21T13:38:35;6.93;;;1.95;;
64842;SDS011;51310;52.198;5.422;2022-08-21T13:43:44;7.45;;;2.10;;
64842;SDS011;51310;52.198;5.422;2022-08-21T13:46:20;4.93;;;1.80;;
64842;SDS011;51310;52.198;5.422;2022-08-21T13:48:52;7.60;;;1.80;;
64842;SDS011;51310;52.198;5.422;2022-08-21T13:51:20;7.57;;;1.92;;
64842;SDS011;51310;52.198;5.422;2022-08-21T13:53:47;6.00;;;2.40;;
64842;SDS011;51310;52.198;5.422;2022-08-21T13:56:24;6.30;;;1.77;;
64842;SDS011;51310;52.198;5.422;2022-08-21T13:58:54;7.35;;;2.47;;
64842;SDS011;51310;52.198;5.422;2022-08-21T14:01:34;5.55;;;1.90;;
64842;SDS011;51310;52.198;5.422;2022-08-21T14:05:18;7.93;;;2.20;;
64842;SDS011;51310;52.198;5.422;2022-08-21T14:07:31;7.85;;;1.85;;
64842;SDS011;51310;52.198;5.422;2022-08-21T14:10:04;7.53;;;1.90;;
64842;SDS011;51310;52.198;5.422;2022-08-21T14:12:54;12.30;;;2.60;;
64842;SDS011;51310;52.198;5.422;2022-08-21T14:15:29;7.20;;;1.85;;
64842;SDS011;51310;52.198;5.422;2022-08-21T14:18:15;6.78;;;1.92;;
64842;SDS011;51310;52.198;5.422;2022-08-21T14:20:45;3.97;;;1.85;;
64842;SDS011;51310;52.198;5.422;2022-08-21T14:23:11;7.75;;;2.20;;
64842;SDS011;51310;52.198;5.422;2022-08-21T14:25:50;6.47;;;1.58;;
64842;SDS011;51310;52.198;5.422;2022-08-21T14:28:23;6.75;;;1.80;;
64842;SDS011;51310;52.198;5.422;2022-08-21T14:30:57;3.30;;;1.50;;
64842;SDS011;51310;52.198;5.422;2022-08-21T14:33:41;6.40;;;1.70;;
64842;SDS011;51310;52.198;5.422;2022-08-21T14:36:11;7.10;;;2.00;;
64842;SDS011;51310;52.198;5.422;2022-08-21T14:38:38;5.30;;;1.73;;
64842;SDS011;51310;52.198;5.422;2022-08-21T14:41:19;8.57;;;1.85;;
64842;SDS011;51310;52.198;5.422;2022-08-21T14:43:52;4.68;;;1.73;;
64842;SDS011;51310;52.198;5.422;2022-08-21T14:46:22;6.45;;;1.85;;
64842;SDS011;51310;52.198;5.422;2022-08-21T14:48:52;8.27;;;1.85;;
64842;SDS011;51310;52.198;5.422;2022-08-21T14:51:19;6.38;;;1.80;;
64842;SDS011;51310;52.198;5.422;2022-08-21T14:53:45;7.30;;;1.80;;
64842;SDS011;51310;52.198;5.422;2022-08-21T14:56:12;4.57;;;1.70;;
64842;SDS011;51310;52.198;5.422;2022-08-21T14:58:41;5.32;;;1.83;;
64842;SDS011;51310;52.198;5.422;2022-08-21T15:01:14;7.20;;;2.03;;
64842;SDS011;51310;52.198;5.422;2022-08-21T15:03:43;8.47;;;2.17;;
64842;SDS011;51310;52.198;5.422;2022-08-21T15:06:11;6.85;;;1.80;;
64842;SDS011;51310;52.198;5.422;2022-08-21T15:08:37;7.43;;;2.05;;
64842;SDS011;51310;52.198;5.422;2022-08-21T15:11:04;4.53;;;1.80;;
64842;SDS011;51310;52.198;5.422;2022-08-21T15:13:32;5.85;;;2.60;;
64842;SDS011;51310;52.198;5.422;2022-08-21T15:15:58;10.13;;;1.90;;
64842;SDS011;51310;52.198;5.422;2022-08-21T15:18:25;6.17;;;1.90;;
64842;SDS011;51310;52.198;5.422;2022-08-21T15:20:54;7.43;;;1.65;;
64842;SDS011;51310;52.198;5.422;2022-08-21T15:23:20;8.95;;;2.28;;
64842;SDS011;51310;52.198;5.422;2022-08-21T15:25:47;11.05;;;2.17;;
64842;SDS011;51310;52.198;5.422;2022-08-21T15:28:15;6.00;;;2.50;;
64842;SDS011;51310;52.198;5.422;2022-08-21T15:30:43;7.40;;;1.73;;
64842;SDS011;51310;52.198;5.422;2022-08-21T15:33:11;6.18;;;1.55;;
64842;SDS011;51310;52.198;5.422;2022-08-21T15:35:37;7.93;;;2.20;;
64842;SDS011;51310;52.198;5.422;2022-08-21T15:38:04;6.65;;;2.70;;
64842;SDS011;51310;52.198;5.422;2022-08-21T15:40:30;10.15;;;1.80;;
64842;SDS011;51310;52.198;5.422;2022-08-21T15:43:00;6.63;;;1.70;;
64842;SDS011;51310;52.198;5.422;2022-08-21T15:45:29;7.40;;;2.58;;
64842;SDS011;51310;52.198;5.422;2022-08-21T15:47:56;7.68;;;1.85;;
64842;SDS011;51310;52.198;5.422;2022-08-21T15:50:23;5.93;;;1.60;;
64842;SDS011;51310;52.198;5.422;2022-08-21T15:52:51;6.93;;;1.98;;
64842;SDS011;51310;52.198;5.422;2022-08-21T15:55:17;8.05;;;1.98;;
64842;SDS011;51310;52.198;5.422;2022-08-21T15:57:45;7.28;;;2.00;;
64842;SDS011;51310;52.198;5.422;2022-08-21T16:00:17;6.22;;;2.10;;
64842;SDS011;51310;52.198;5.422;2022-08-21T16:02:51;8.70;;;2.43;;
64842;SDS011;51310;52.198;5.422;2022-08-21T16:05:22;8.65;;;2.40;;
64842;SDS011;51310;52.198;5.422;2022-08-21T16:07:49;12.27;;;2.53;;
64842;SDS011;51310;52.198;5.422;2022-08-21T16:10:17;8.50;;;2.25;;
64842;SDS011;51310;52.198;5.422;2022-08-21T16:12:56;8.20;;;2.45;;
64842;SDS011;51310;52.198;5.422;2022-08-21T16:15:27;7.47;;;1.95;;
64842;SDS011;51310;52.198;5.422;2022-08-21T16:17:54;8.27;;;2.47;;
64842;SDS011;51310;52.198;5.422;2022-08-21T16:20:25;7.22;;;2.03;;
64842;SDS011;51310;52.198;5.422;2022-08-21T16:22:54;5.43;;;1.60;;
64842;SDS011;51310;52.198;5.422;2022-08-21T16:25:22;9.32;;;1.70;;
64842;SDS011;51310;52.198;5.422;2022-08-21T16:27:52;5.43;;;1.60;;
64842;SDS011;51310;52.198;5.422;2022-08-21T16:30:23;9.80;;;1.83;;
64842;SDS011;51310;52.198;5.422;2022-08-21T16:32:51;7.68;;;1.80;;
64842;SDS011;51310;52.198;5.422;2022-08-21T16:35:18;5.28;;;1.67;;
64842;SDS011;51310;52.198;5.422;2022-08-21T16:37:46;9.52;;;2.05;;
64842;SDS011;51310;52.198;5.422;2022-08-21T16:40:12;5.85;;;1.63;;
64842;SDS011;51310;52.198;5.422;2022-08-21T16:42:39;7.63;;;2.08;;
64842;SDS011;51310;52.198;5.422;2022-08-21T16:45:08;9.27;;;1.73;;